M I D A S
Marine Information and Data Acquisition System
Tripno 1645 of the Zeeleeuw from 2009-02-20 08:07:55 to 2009-02-20 15:34:15
Back to CruiseResearch ActivitiesStationsMapUnderway DataData graphs

EquipmentUnitsComment
TimeDGPSUTC
LatitudeDGPSDM.mWGS84
LongitudeDGPSDM.mWGS84
HeadingGyrodeg 
SOGDGPSknotsSpeed over ground
COGDGPSdegCourse over ground
DepthEcho soundermeters200 kHz
Missing or incorrect values are displayed as -999
Navigation data collected by the RV Zeeleeuw from 2009-02-20 07:52:33 to 2009-02-20 15:38:39
Time Latitude Longitude Heading SOG COG Depth
2009-02-20 07:53:39 51°13.679 2°55.901 111.3 3.5 294 -999
2009-02-20 07:54:39 51°13.696 2°55.814 99.6 3.4 282 -999
2009-02-20 07:55:39 51°13.698 2°55.741 81.5 1.3 266 -999
2009-02-20 07:56:39 51°13.705 2°55.747 35.5 0.4 43 12.6
2009-02-20 07:57:39 51°13.696 2°55.74 7.3 1.4 358 4.8
2009-02-20 07:58:39 51°13.756 2°55.692 332.6 6 331 12.2
2009-02-20 07:59:39 51°13.859 2°55.611 336.9 7.4 336 11.7
2009-02-20 08:00:39 51°13.977 2°55.532 337.9 8.1 337 11.8
2009-02-20 08:01:39 51°14.103 2°55.445 337.6 8.5 336 11.6
2009-02-20 08:02:39 51°14.225 2°55.327 323.2 8.8 320 11.7
2009-02-20 08:03:39 51°14.331 2°55.136 313.3 10.6 314 11.8
2009-02-20 08:04:39 51°14.449 2°54.899 304.4 11.8 307 12.3
2009-02-20 08:05:39 51°14.592 2°54.687 325.6 12 330 11.7
2009-02-20 08:06:39 51°14.78 2°54.562 337.6 12.2 338 11.5
2009-02-20 08:07:39 51°14.969 2°54.441 337.2 12.3 338 12.8
2009-02-20 08:08:39 51°15.154 2°54.302 331 12.2 331 13.2
2009-02-20 08:09:39 51°15.332 2°54.148 331.3 12.1 333 11.6
2009-02-20 08:10:39 51°15.513 2°54.004 332.6 12.2 334 11.9
2009-02-20 08:11:39 51°15.693 2°53.855 331 12.1 332 12.5
2009-02-20 08:12:39 51°15.872 2°53.703 330.4 12.1 331 13
2009-02-20 08:13:39 51°16.05 2°53.549 330.6 12.2 331 13.3
2009-02-20 08:14:39 51°16.228 2°53.398 332 12.2 334 13.5
2009-02-20 08:15:39 51°16.41 2°53.253 329.9 12.1 331 13.6
2009-02-20 08:16:39 51°16.583 2°53.095 329.7 12 331 13.5
2009-02-20 08:17:39 51°16.76 2°52.946 331.4 12.1 333 12.6
2009-02-20 08:18:39 51°16.934 2°52.791 330.3 12 331 11.3
2009-02-20 08:19:39 51°17.108 2°52.634 330.1 12 329 11.4
2009-02-20 08:20:39 51°17.271 2°52.45 321.6 12 322 12
2009-02-20 08:21:39 51°17.422 2°52.24 317.4 12 319 12.3
2009-02-20 08:22:39 51°17.571 2°52.026 316.9 12.1 317 12.3
2009-02-20 08:23:38 51°17.717 2°51.812 317.1 12.1 317 12
2009-02-20 08:24:38 51°17.865 2°51.594 317.8 12.1 317 12.1
2009-02-20 08:25:38 51°18.013 2°51.377 317.6 12.1 318 13
2009-02-20 08:26:38 51°18.161 2°51.159 317.8 12.1 317 14.1
2009-02-20 08:27:39 51°18.309 2°50.934 315.7 12.1 315 15.1
2009-02-20 08:28:39 51°18.45 2°50.704 314.7 12.1 316 15.9
2009-02-20 08:29:39 51°18.596 2°50.478 315.5 12.2 316 16.2
2009-02-20 08:30:38 51°18.745 2°50.265 319.8 12.3 320 15.9
2009-02-20 08:31:38 51°18.898 2°50.049 316.2 12.2 316 14.6
2009-02-20 08:32:38 51°19.041 2°49.824 315.4 12.1 316 12.9
2009-02-20 08:33:38 51°19.192 2°49.612 319.5 12.1 319 14
2009-02-20 08:34:38 51°19.341 2°49.397 316.7 12.1 316 15.9
2009-02-20 08:35:38 51°19.489 2°49.18 318.5 12.1 318 16.9
2009-02-20 08:36:38 51°19.639 2°48.967 318 12.1 319 19.7
2009-02-20 08:37:38 51°19.789 2°48.751 316.1 12.1 316 22.1
2009-02-20 08:38:38 51°19.936 2°48.529 315.6 12.1 316 24.1
2009-02-20 08:39:38 51°20.081 2°48.306 315.3 12.1 316 24.4
2009-02-20 08:40:38 51°20.231 2°48.09 321.7 12.2 325 24.2
2009-02-20 08:41:38 51°20.415 2°47.947 337.9 12.4 338 23.2
2009-02-20 08:42:38 51°20.606 2°47.824 337.7 12.3 337 21.9
2009-02-20 08:43:38 51°20.796 2°47.701 337.6 12.3 338 21
2009-02-20 08:44:38 51°20.985 2°47.577 335.2 12.3 336 21.8
2009-02-20 08:45:38 51°21.163 2°47.42 326.1 12.1 325 24.1
2009-02-20 08:46:38 51°21.318 2°47.218 315.8 11.9 316 25.3
2009-02-20 08:47:38 51°21.462 2°46.998 314.7 12 317 25.1
2009-02-20 08:48:38 51°21.601 2°46.771 311.5 12 314 27.1
2009-02-20 08:49:38 51°21.738 2°46.542 312 12 314 27
2009-02-20 08:50:38 51°21.876 2°46.313 312.2 12 314 25
2009-02-20 08:51:38 51°22.011 2°46.077 309.3 11.9 311 23.3
2009-02-20 08:52:39 51°22.149 2°45.838 311.5 12.1 313 22.9
2009-02-20 08:53:38 51°22.288 2°45.612 313.9 12.1 316 23.2
2009-02-20 08:54:38 51°22.427 2°45.378 312.4 12.1 313 26.2
2009-02-20 08:55:38 51°22.564 2°45.145 311.5 12 313 27.5
2009-02-20 08:56:38 51°22.706 2°44.919 314.2 12 316 28.4
2009-02-20 08:57:38 51°22.837 2°44.706 311.7 11.4 314 28.8
2009-02-20 08:58:38 51°22.975 2°44.484 313.5 11.9 315 26.9
2009-02-20 08:59:38 51°23.119 2°44.264 313.9 12 317 28.1
2009-02-20 09:00:38 51°23.259 2°44.039 311.9 11.9 313 29.1
2009-02-20 09:01:38 51°23.394 2°43.81 312.4 11.8 314 28.3
2009-02-20 09:02:38 51°23.526 2°43.578 312.1 11.9 313 28.9
2009-02-20 09:03:38 51°23.663 2°43.35 313.6 11.8 315 28.6
2009-02-20 09:04:38 51°23.8 2°43.126 311.2 11.8 313 26.6
2009-02-20 09:05:38 51°23.934 2°42.898 313.3 11.9 314 29.2
2009-02-20 09:06:38 51°24.072 2°42.674 313.4 11.8 314 26.4
2009-02-20 09:07:38 51°24.205 2°42.442 311.3 11.8 314 27.6
2009-02-20 09:08:39 51°24.35 2°42.219 315.4 11.9 317 26.4
2009-02-20 09:09:38 51°24.491 2°42.003 315.1 12 315 28.2
2009-02-20 09:10:38 51°24.634 2°41.779 314.1 12 314 25.5
2009-02-20 09:11:38 51°24.774 2°41.55 312.8 12 315 23.7
2009-02-20 09:12:39 51°24.916 2°41.319 313.3 11.9 315 26.7
2009-02-20 09:13:38 51°25.056 2°41.102 313.9 11.9 315 28.2
2009-02-20 09:14:38 51°25.197 2°40.879 314.3 11.9 316 28.2
2009-02-20 09:15:38 51°25.341 2°40.659 316.5 11.9 318 29.8
2009-02-20 09:16:38 51°25.485 2°40.439 314.2 11.9 317 28.5
2009-02-20 09:17:39 51°25.63 2°40.214 312.9 11.9 315 31.3
2009-02-20 09:18:38 51°25.77 2°39.997 314 11.9 317 32.5
2009-02-20 09:19:38 51°25.915 2°39.779 314.5 12 316 32.7
2009-02-20 09:20:38 51°26.056 2°39.556 313 11.9 316 34.5
2009-02-20 09:21:38 51°26.2 2°39.336 315.3 12 317 40.1
2009-02-20 09:22:38 51°26.348 2°39.122 315.3 12 317 35.6
2009-02-20 09:23:38 51°26.497 2°38.905 315.4 12.2 318 35
2009-02-20 09:24:38 51°26.645 2°38.685 314.7 12.1 317 33.7
2009-02-20 09:25:38 51°26.794 2°38.467 315.9 12.1 317 35
2009-02-20 09:26:39 51°26.941 2°38.241 312.9 12.1 315 35.8
2009-02-20 09:27:38 51°27.078 2°38.018 314.1 11.9 316 35.8
2009-02-20 09:28:39 51°27.222 2°37.791 312.8 12 316 34.9
2009-02-20 09:29:38 51°27.361 2°37.574 313.4 11.8 315 34.2
2009-02-20 09:30:38 51°27.502 2°37.353 313.1 11.9 316 34.3
2009-02-20 09:31:38 51°27.643 2°37.13 313 11.9 316 34.9
2009-02-20 09:32:38 51°27.784 2°36.908 312 11.8 314 36.7
2009-02-20 09:33:38 51°27.921 2°36.685 313 11.8 316 37.8
2009-02-20 09:34:38 51°28.061 2°36.465 313.3 11.8 315 36.5
2009-02-20 09:35:38 51°28.202 2°36.246 313 11.8 315 27.6
2009-02-20 09:36:38 51°28.341 2°36.028 313.1 11.7 315 29.5
2009-02-20 09:37:39 51°28.479 2°35.802 312.8 11.7 314 30.6
2009-02-20 09:38:38 51°28.614 2°35.583 312.5 11.7 315 35
2009-02-20 09:39:38 51°28.784 2°35.433 341.2 12.1 345 35.9
2009-02-20 09:40:38 51°28.982 2°35.441 13.7 12.4 20 36.6
2009-02-20 09:41:38 51°29.173 2°35.572 24.3 12.5 25 37.4
2009-02-20 09:42:38 51°29.361 2°35.723 25.3 12.6 27 36.3
2009-02-20 09:43:38 51°29.547 2°35.874 26.2 12.6 26 35.8
2009-02-20 09:44:39 51°29.739 2°36.024 25.2 12.6 26 34.8
2009-02-20 09:45:38 51°29.927 2°36.159 21.2 12.6 22 34
2009-02-20 09:46:38 51°30.122 2°36.284 20.6 12.5 22 34.8
2009-02-20 09:47:38 51°30.317 2°36.401 19.2 12.5 20 33.5
2009-02-20 09:48:39 51°30.515 2°36.522 17.4 12.5 19 32.9
2009-02-20 09:49:39 51°30.713 2°36.619 16.1 12.4 18 33.6
2009-02-20 09:50:38 51°30.908 2°36.718 16.8 12.5 18 33.3
2009-02-20 09:51:39 51°31.108 2°36.83 18.3 12.5 19 33
2009-02-20 09:52:38 51°31.302 2°36.936 18.7 12.6 18 32.6
2009-02-20 09:53:39 51°31.503 2°37.047 17.7 12.5 17 30.8
2009-02-20 09:54:38 51°31.696 2°37.154 18.9 12.5 20 29.8
2009-02-20 09:55:38 51°31.893 2°37.264 18.7 12.5 19 30.2
2009-02-20 09:56:39 51°32.093 2°37.376 18.7 12.5 19 30.8
2009-02-20 09:57:38 51°32.287 2°37.483 18.2 12.5 18 31.4
2009-02-20 09:58:39 51°32.476 2°37.584 16.9 11.6 19 31.4
2009-02-20 09:59:38 51°32.669 2°37.691 18.1 12.7 19 31.2
2009-02-20 10:00:39 51°32.873 2°37.805 18.8 12.9 20 31.7
2009-02-20 10:01:38 51°33.071 2°37.914 18.5 12.7 20 32.3
2009-02-20 10:02:39 51°33.275 2°38.024 18.8 12.6 20 33.1
2009-02-20 10:03:38 51°33.472 2°38.134 17.9 12.8 19 34.3
2009-02-20 10:04:39 51°33.677 2°38.239 18.7 12.7 19 34.3
2009-02-20 10:05:39 51°33.878 2°38.348 18.3 12.9 19 34.6
2009-02-20 10:06:38 51°34.076 2°38.455 16.6 12.8 18 34.4
2009-02-20 10:07:39 51°34.28 2°38.571 19.6 12.8 20 36.2
2009-02-20 10:08:38 51°34.478 2°38.686 19.5 12.8 20 36.1
2009-02-20 10:09:39 51°34.682 2°38.804 18.4 12.8 20 35.6
2009-02-20 10:10:38 51°34.879 2°38.915 18.2 12.8 19 35.9
2009-02-20 10:11:38 51°35.079 2°39.032 18.9 12.8 20 34.7
2009-02-20 10:12:38 51°35.282 2°39.131 14.6 12.8 16 35.1
2009-02-20 10:13:39 51°35.49 2°39.225 15 12.8 16 35
2009-02-20 10:14:38 51°35.691 2°39.314 14.5 12.7 14 35.1
2009-02-20 10:15:38 51°35.895 2°39.401 13.4 12.7 15 34.6
2009-02-20 10:16:39 51°36.102 2°39.497 15.5 12.8 17 34
2009-02-20 10:17:38 51°36.303 2°39.591 15.4 12.7 16 33.4
2009-02-20 10:18:39 51°36.51 2°39.685 14.6 12.8 16 33.5
2009-02-20 10:19:38 51°36.712 2°39.775 15.8 12.8 16 33.6
2009-02-20 10:20:39 51°36.92 2°39.871 14.5 12.8 15 32.8
2009-02-20 10:21:38 51°37.121 2°39.96 15.7 12.8 16 32.8
2009-02-20 10:22:38 51°37.325 2°40.057 15.9 12.7 16 32.6
2009-02-20 10:23:39 51°37.533 2°40.151 15 12.9 16 32.4
2009-02-20 10:24:39 51°37.737 2°40.247 15.3 12.8 16 32.1
2009-02-20 10:25:39 51°37.942 2°40.34 15.7 12.9 15 31.4
2009-02-20 10:26:38 51°38.145 2°40.434 15.9 12.8 16 30.8
2009-02-20 10:27:39 51°38.354 2°40.532 16.2 12.8 15 31.5
2009-02-20 10:28:38 51°38.557 2°40.623 14.3 12.9 15 29
2009-02-20 10:29:39 51°38.767 2°40.724 17.4 13 19 27
2009-02-20 10:30:38 51°38.967 2°40.836 18.2 12.9 18 31.1
2009-02-20 10:31:38 51°39.171 2°40.945 18.7 13 19 28.9
2009-02-20 10:32:39 51°39.378 2°41.061 18.2 12.9 19 33.3
2009-02-20 10:33:38 51°39.577 2°41.171 18.4 12.9 20 28.5
2009-02-20 10:34:39 51°39.784 2°41.289 18.8 12.9 19 29.2
2009-02-20 10:35:38 51°39.983 2°41.401 18.6 12.9 19 29.9
2009-02-20 10:36:39 51°40.188 2°41.516 19.5 12.7 19 36.7
2009-02-20 10:37:39 51°40.391 2°41.623 17.5 12.8 17 32.3
2009-02-20 10:38:39 51°40.595 2°41.725 17.6 12.9 18 33.7
2009-02-20 10:39:39 51°40.797 2°41.835 18.9 12.7 20 37.5
2009-02-20 10:40:39 51°40.998 2°41.951 18.5 12.9 18 36.1
2009-02-20 10:41:39 51°41.201 2°42.063 19.3 12.9 19 32.6
2009-02-20 10:42:38 51°41.4 2°42.171 17.5 12.8 15 35.9
2009-02-20 10:43:39 51°41.607 2°42.283 19.1 12.8 16 35.2
2009-02-20 10:44:38 51°41.806 2°42.391 17.5 12.8 19 36.2
2009-02-20 10:45:39 51°42.013 2°42.5 18.3 12.9 17 36.5
2009-02-20 10:46:39 51°42.216 2°42.613 18.7 12.8 19 30.2
2009-02-20 10:47:38 51°42.415 2°42.722 18.6 12.9 19 35.4
2009-02-20 10:48:39 51°42.621 2°42.834 18.7 12.9 20 33
2009-02-20 10:49:39 51°42.823 2°42.945 18.4 12.8 19 39.1
2009-02-20 10:50:39 51°43.025 2°43.056 18.7 12.8 19 38
2009-02-20 10:51:38 51°43.223 2°43.172 19 12.9 19 40
2009-02-20 10:52:39 51°43.429 2°43.289 20.9 12.9 21 37
2009-02-20 10:53:38 51°43.605 2°43.471 42.6 12.8 46 40.4
2009-02-20 10:54:39 51°43.703 2°43.78 76.3 12.8 80 39.7
2009-02-20 10:55:39 51°43.673 2°44.109 116 12.4 114 37.3
2009-02-20 10:56:39 51°43.54 2°44.358 139.4 12.3 137 34.1
2009-02-20 10:57:39 51°43.404 2°44.605 132.6 12.4 128 37.1
2009-02-20 10:58:38 51°43.286 2°44.868 129.7 12.1 121 40.4
2009-02-20 10:59:39 51°43.172 2°45.15 126 12.4 124 38.7
2009-02-20 11:00:39 51°43.058 2°45.427 129.6 12.6 120 40
2009-02-20 11:01:39 51°42.944 2°45.702 128.6 12.4 119 38.3
2009-02-20 11:02:38 51°42.823 2°45.959 139.2 12.3 132 37.4
2009-02-20 11:03:39 51°42.654 2°46.134 162.9 11.7 164 37.6
2009-02-20 11:04:39 51°42.471 2°46.087 203.8 11.4 208 32.7
2009-02-20 11:05:39 51°42.299 2°45.958 205.7 11.5 202 41.8
2009-02-20 11:06:39 51°42.121 2°45.853 201.7 11.2 200 40
2009-02-20 11:07:38 51°41.946 2°45.744 201.9 11.2 205 32.2
2009-02-20 11:08:39 51°41.766 2°45.635 204 11.5 201 39.3
2009-02-20 11:09:39 51°41.589 2°45.522 204.5 11.6 199 40.8
2009-02-20 11:10:39 51°41.41 2°45.414 203.1 11.5 199 39.4
2009-02-20 11:11:39 51°41.235 2°45.307 201 11.4 205 40.8
2009-02-20 11:12:39 51°41.057 2°45.2 204 11.4 199 35.9
2009-02-20 11:13:39 51°40.88 2°45.087 202.7 11.3 204 37
2009-02-20 11:14:39 51°40.704 2°44.972 203.4 11.4 207 40.6
2009-02-20 11:15:39 51°40.526 2°44.861 202.9 11.5 202 38.7
2009-02-20 11:16:39 51°40.35 2°44.752 201.5 11.5 204 40.1
2009-02-20 11:17:39 51°40.173 2°44.636 205.1 11.5 203 38.2
2009-02-20 11:18:39 51°39.997 2°44.519 202.5 11.5 206 36
2009-02-20 11:19:39 51°39.822 2°44.409 204.5 11.4 199 40.7
2009-02-20 11:20:39 51°39.644 2°44.295 203 11.5 199 38.5
2009-02-20 11:21:39 51°39.465 2°44.184 202.9 11.4 199 38.2
2009-02-20 11:22:39 51°39.288 2°44.071 203.4 11.4 202 37.8
2009-02-20 11:23:38 51°39.115 2°43.961 203.3 11.3 200 39.9
2009-02-20 11:24:39 51°38.937 2°43.848 202.6 11.2 201 35.3
2009-02-20 11:25:39 51°38.764 2°43.733 204.2 11.4 201 39
2009-02-20 11:26:39 51°38.589 2°43.614 203.2 11.6 203 38.6
2009-02-20 11:27:39 51°38.413 2°43.495 203.2 11.4 204 39.2
2009-02-20 11:28:39 51°38.238 2°43.378 202.6 11.3 202 37.4
2009-02-20 11:29:39 51°38.064 2°43.262 202.1 11.3 208 37.9
2009-02-20 11:30:39 51°37.89 2°43.142 202.6 11.5 206 38.1
2009-02-20 11:31:39 51°37.715 2°43.024 202.4 11.5 204 37.7
2009-02-20 11:32:39 51°37.54 2°42.904 203.1 11.5 204 37.4
2009-02-20 11:33:39 51°37.364 2°42.78 203.4 11.6 207 36.8
2009-02-20 11:34:39 51°37.189 2°42.657 202.6 11.8 203 36.4
2009-02-20 11:35:39 51°37.012 2°42.533 203.8 11.5 203 38.3
2009-02-20 11:36:39 51°36.834 2°42.409 203.8 11.7 202 38.3
2009-02-20 11:37:39 51°36.657 2°42.289 202.3 11.6 204 38.6
2009-02-20 11:38:39 51°36.48 2°42.166 202.3 11.5 203 38
2009-02-20 11:39:39 51°36.3 2°42.047 201.5 11.8 204 38.5
2009-02-20 11:40:39 51°36.121 2°41.922 204.3 11.8 204 38.2
2009-02-20 11:41:39 51°35.943 2°41.798 203.1 11.7 205 39.4
2009-02-20 11:42:39 51°35.765 2°41.671 203.3 11.8 206 38.9
2009-02-20 11:43:39 51°35.584 2°41.551 202.8 11.8 204 39.6
2009-02-20 11:44:39 51°35.406 2°41.425 203.5 11.7 206 39.8
2009-02-20 11:45:39 51°35.227 2°41.302 203.3 11.6 204 39.3
2009-02-20 11:46:39 51°35.048 2°41.181 203 11.7 201 38.4
2009-02-20 11:47:39 51°34.868 2°41.055 203.2 11.9 202 38.5
2009-02-20 11:48:39 51°34.687 2°40.938 201.3 11.6 201 37.1
2009-02-20 11:49:39 51°34.505 2°40.824 201.1 11.7 201 39.5
2009-02-20 11:50:39 51°34.324 2°40.712 202.1 11.7 199 39.3
2009-02-20 11:51:39 51°34.146 2°40.589 202.1 11.8 203 38.8
2009-02-20 11:52:39 51°33.965 2°40.468 202.4 11.6 203 38.5
2009-02-20 11:53:39 51°33.785 2°40.358 197.5 11.8 199 39
2009-02-20 11:54:39 51°33.601 2°40.255 198.7 11.7 199 39.2
2009-02-20 11:55:39 51°33.418 2°40.154 198.5 11.6 199 40.8
2009-02-20 11:56:39 51°33.237 2°40.043 201 11.7 200 40.6
2009-02-20 11:57:39 51°33.054 2°39.937 198.7 11.6 199 39.4
2009-02-20 11:58:39 51°32.876 2°39.834 198.3 10.4 201 39.1
2009-02-20 11:59:39 51°32.716 2°39.742 198.2 11.3 201 38
2009-02-20 12:00:39 51°32.529 2°39.682 186.5 11.8 179 38.3
2009-02-20 12:01:39 51°32.338 2°39.714 168.4 11.5 165 40.2
2009-02-20 12:02:39 51°32.173 2°39.872 138.7 11.7 134 39.2
2009-02-20 12:03:39 51°32.111 2°40.165 95.9 12.1 90 39.4
2009-02-20 12:04:39 51°32.137 2°40.495 85.1 12.6 83 38.1
2009-02-20 12:05:39 51°32.152 2°40.829 88.5 12.5 88 37.5
2009-02-20 12:06:39 51°32.155 2°41.163 92.1 12.5 92 36.7
2009-02-20 12:07:39 51°32.15 2°41.496 93.9 12.5 93 37.6
2009-02-20 12:08:39 51°32.152 2°41.825 87.4 12.2 80 34.1
2009-02-20 12:09:39 51°32.279 2°42.047 22.9 12 22 34.7
2009-02-20 12:10:39 51°32.478 2°42.134 16.1 12.6 18 34.5
2009-02-20 12:11:39 51°32.675 2°42.249 20.9 12.6 21 35.1
2009-02-20 12:12:39 51°32.871 2°42.368 21.2 12.6 21 34.8
2009-02-20 12:13:39 51°33.067 2°42.492 22.3 12.7 22 31.5
2009-02-20 12:14:39 51°33.265 2°42.61 19.6 12.7 19 34.2
2009-02-20 12:15:39 51°33.462 2°42.735 22.8 12.7 22 35.4
2009-02-20 12:16:39 51°33.657 2°42.862 22.6 12.6 21 37.9
2009-02-20 12:17:39 51°33.853 2°42.987 22.1 12.8 20 34
2009-02-20 12:18:39 51°34.05 2°43.114 23.1 12.7 20 36.5
2009-02-20 12:19:39 51°34.246 2°43.241 21.9 12.7 22 37.1
2009-02-20 12:20:39 51°34.443 2°43.37 22.9 12.8 22 38.5
2009-02-20 12:21:39 51°34.639 2°43.496 22.3 12.8 22 38.7
2009-02-20 12:22:39 51°34.837 2°43.627 23 12.8 22 38.1
2009-02-20 12:23:39 51°35.034 2°43.753 22 12.7 20 37.8
2009-02-20 12:24:39 51°35.231 2°43.877 22.4 12.7 23 36.9
2009-02-20 12:25:39 51°35.428 2°44.006 23.2 12.8 23 38
2009-02-20 12:26:39 51°35.623 2°44.135 23 12.7 23 37.7
2009-02-20 12:27:39 51°35.818 2°44.264 23.6 12.6 23 36.6
2009-02-20 12:28:39 51°36.012 2°44.393 23.8 12.8 22 38.3
2009-02-20 12:29:39 51°36.207 2°44.525 23.3 12.6 23 38.1
2009-02-20 12:30:39 51°36.401 2°44.652 20.9 12.6 21 37.8
2009-02-20 12:31:39 51°36.597 2°44.775 22.2 12.6 21 37.4
2009-02-20 12:32:39 51°36.793 2°44.898 23.4 12.7 22 36.8
2009-02-20 12:33:39 51°36.989 2°45.023 22.6 12.7 21 37.1
2009-02-20 12:34:39 51°37.184 2°45.146 22.8 12.6 23 35.3
2009-02-20 12:35:39 51°37.378 2°45.276 23.4 12.7 23 36.6
2009-02-20 12:36:39 51°37.573 2°45.406 23.6 12.6 22 34.8
2009-02-20 12:37:39 51°37.77 2°45.528 21.3 12.6 21 36.5
2009-02-20 12:38:39 51°37.965 2°45.659 24 12.7 23 35.9
2009-02-20 12:39:39 51°38.162 2°45.789 22.6 12.7 23 35.1
2009-02-20 12:40:39 51°38.359 2°45.917 22.6 12.8 22 34.1
2009-02-20 12:41:39 51°38.557 2°46.043 22.7 12.7 22 34
2009-02-20 12:42:39 51°38.75 2°46.167 23.3 12.5 23 33.5
2009-02-20 12:43:39 51°38.945 2°46.294 23.9 12.6 22 34.5
2009-02-20 12:44:39 51°39.141 2°46.415 21.5 12.6 20 32.2
2009-02-20 12:45:39 51°39.336 2°46.539 24 12.7 21 33.6
2009-02-20 12:46:39 51°39.531 2°46.662 23.4 12.4 21 33.9
2009-02-20 12:47:39 51°39.724 2°46.78 22.5 12.5 19 33.2
2009-02-20 12:48:39 51°39.918 2°46.899 23 12.5 20 33.6
2009-02-20 12:49:39 51°40.112 2°47.022 24 12.5 21 33.1
2009-02-20 12:50:39 51°40.306 2°47.141 23.6 12.5 21 33.3
2009-02-20 12:51:39 51°40.5 2°47.259 23.3 12.5 20 31.8
2009-02-20 12:52:39 51°40.692 2°47.383 25.3 12.3 23 29.8
2009-02-20 12:53:39 51°40.882 2°47.509 25.4 12.4 22 30.4
2009-02-20 12:54:39 51°41.071 2°47.631 23.5 12.3 22 29.2
2009-02-20 12:55:39 51°41.262 2°47.754 24.1 12.5 21 29.3
2009-02-20 12:56:39 51°41.452 2°47.878 23.8 12.5 22 29.7
2009-02-20 12:57:39 51°41.629 2°48.033 40 12 40 30
2009-02-20 12:58:39 51°41.737 2°48.303 71.2 12 71 29.3
2009-02-20 12:59:39 51°41.727 2°48.618 111.2 12.2 106 29.4
2009-02-20 13:00:39 51°41.605 2°48.866 137.9 11.5 140 25.1
2009-02-20 13:01:39 51°41.453 2°49.068 141.6 11.8 147 23.3
2009-02-20 13:02:39 51°41.304 2°49.277 139.2 11.9 138 20.2
2009-02-20 13:03:39 51°41.147 2°49.458 162.1 11.6 163 31.1
2009-02-20 13:04:39 51°40.952 2°49.497 180.3 12.1 181 33.6
2009-02-20 13:05:39 51°40.756 2°49.461 190.7 11.8 188 33.8
2009-02-20 13:06:39 51°40.563 2°49.398 196 11.7 194 33.9
2009-02-20 13:07:39 51°40.374 2°49.303 199.1 11.9 200 32.1
2009-02-20 13:08:39 51°40.184 2°49.212 197.9 11.8 197 32.5
2009-02-20 13:09:39 51°39.995 2°49.121 198.6 11.7 194 31.9
2009-02-20 13:10:39 51°39.806 2°49.032 196.8 11.5 198 32.1
2009-02-20 13:11:39 51°39.617 2°48.939 199.6 11.8 197 32.5
2009-02-20 13:12:39 51°39.428 2°48.846 198.6 12.4 195 32.7
2009-02-20 13:13:39 51°39.239 2°48.756 199 11.9 194 32.2
2009-02-20 13:14:39 51°39.05 2°48.659 199.7 12.1 197 31.4
2009-02-20 13:15:39 51°38.857 2°48.565 197.6 12.3 198 26
2009-02-20 13:16:39 51°38.668 2°48.471 197.9 12 196 26.1
2009-02-20 13:17:39 51°38.477 2°48.38 197.6 12.2 198 28.9
2009-02-20 13:18:39 51°38.286 2°48.282 198.1 12 199 27.6
2009-02-20 13:19:39 51°38.096 2°48.184 199.7 12.1 198 29.4
2009-02-20 13:20:39 51°37.905 2°48.088 196.8 12.1 199 27.9
2009-02-20 13:21:39 51°37.716 2°47.987 199.4 12 200 28.7
2009-02-20 13:22:39 51°37.528 2°47.883 197.7 11.9 198 25.7
2009-02-20 13:23:39 51°37.336 2°47.786 197.6 11.9 196 30.8
2009-02-20 13:24:39 51°37.146 2°47.685 198.6 12.1 198 31.7
2009-02-20 13:25:39 51°36.958 2°47.584 199.2 11.6 198 31.9
2009-02-20 13:26:39 51°36.773 2°47.486 197.8 12 200 32.9
2009-02-20 13:27:39 51°36.59 2°47.39 199 11.7 197 33.7
2009-02-20 13:28:39 51°36.407 2°47.284 199.8 11.5 198 34
2009-02-20 13:29:39 51°36.223 2°47.184 197.6 11.9 199 34.2
2009-02-20 13:30:39 51°36.038 2°47.088 196 11.5 200 34.4
2009-02-20 13:31:39 51°35.854 2°46.985 197.6 11.8 202 34.6
2009-02-20 13:32:39 51°35.672 2°46.876 199.5 11.6 198 34.8
2009-02-20 13:33:39 51°35.488 2°46.77 199 11.7 197 35.3
2009-02-20 13:34:39 51°35.301 2°46.659 198.6 12 199 33.8
2009-02-20 13:35:39 51°35.113 2°46.548 199.3 11.8 198 33.1
2009-02-20 13:36:39 51°34.926 2°46.443 197.7 12 201 33
2009-02-20 13:37:39 51°34.739 2°46.345 197.5 11.5 196 33.4
2009-02-20 13:38:39 51°34.551 2°46.246 196.8 12.1 201 33
2009-02-20 13:39:39 51°34.363 2°46.141 196.3 12 202 33.4
2009-02-20 13:40:39 51°34.175 2°46.04 198.3 12 198 32
2009-02-20 13:41:39 51°33.986 2°45.939 197.5 11.8 199 31.2
2009-02-20 13:42:39 51°33.798 2°45.826 199 12 202 30.7
2009-02-20 13:43:39 51°33.608 2°45.716 200.4 11.9 196 31.5
2009-02-20 13:44:39 51°33.419 2°45.605 199.1 12.1 201 31.9
2009-02-20 13:45:39 51°33.229 2°45.494 199.5 12.1 199 32.2
2009-02-20 13:46:39 51°33.039 2°45.384 199.6 12.2 199 31.7
2009-02-20 13:47:39 51°32.848 2°45.277 197.7 12.1 200 34.7
2009-02-20 13:48:39 51°32.657 2°45.173 199 11.9 196 34.3
2009-02-20 13:49:39 51°32.467 2°45.066 198.9 12.4 198 36.1
2009-02-20 13:50:39 51°32.279 2°44.956 199.7 12.1 203 33.8
2009-02-20 13:51:39 51°32.088 2°44.853 197.5 12 199 37.2
2009-02-20 13:52:39 51°31.897 2°44.744 198.4 12 199 36.5
2009-02-20 13:53:39 51°31.705 2°44.643 199.1 11.9 197 34.5
2009-02-20 13:54:39 51°31.513 2°44.531 197.4 12.3 202 33.9
2009-02-20 13:55:39 51°31.323 2°44.418 198.9 12.3 203 34.2
2009-02-20 13:56:39 51°31.131 2°44.303 197.5 12.3 200 30.1
2009-02-20 13:57:39 51°30.94 2°44.192 198 12.4 198 30.3
2009-02-20 13:58:39 51°30.75 2°44.082 199.8 12.2 199 31.9
2009-02-20 13:59:39 51°30.557 2°43.967 198 12.3 200 32.5
2009-02-20 14:00:39 51°30.365 2°43.86 198.3 12.1 199 33
2009-02-20 14:01:39 51°30.175 2°43.751 198 12.4 199 32.7
2009-02-20 14:02:39 51°29.984 2°43.648 198.4 12.5 196 31.2
2009-02-20 14:03:39 51°29.793 2°43.536 197.6 12.2 200 30.6
2009-02-20 14:04:39 51°29.601 2°43.426 197.5 12.2 199 31
2009-02-20 14:05:39 51°29.407 2°43.464 162.3 11.9 161 30.5
2009-02-20 14:06:39 51°29.216 2°43.579 154.4 12.1 153 28
2009-02-20 14:07:39 51°29.038 2°43.732 146.4 12 156 29.7
2009-02-20 14:08:39 51°28.864 2°43.892 150.8 11.7 148 29.5
2009-02-20 14:09:39 51°28.692 2°44.045 149.6 12.1 151 28.5
2009-02-20 14:10:39 51°28.517 2°44.199 150.1 12 152 29.2
2009-02-20 14:11:39 51°28.341 2°44.349 152.5 12 150 31
2009-02-20 14:12:39 51°28.166 2°44.496 150.8 11.7 154 29.6
2009-02-20 14:13:39 51°27.989 2°44.641 149.8 11.9 153 27.5
2009-02-20 14:14:39 51°27.814 2°44.791 151 12.1 152 28.2
2009-02-20 14:15:39 51°27.641 2°44.941 150.4 11.9 147 26.5
2009-02-20 14:16:39 51°27.464 2°45.09 150.3 11.8 154 25.7
2009-02-20 14:17:39 51°27.287 2°45.238 150.9 12 151 28.6
2009-02-20 14:18:39 51°27.108 2°45.386 151 12.2 150 28
2009-02-20 14:19:39 51°26.93 2°45.535 147.8 12.2 155 29.6
2009-02-20 14:20:39 51°26.753 2°45.688 149.7 12.1 150 29
2009-02-20 14:21:39 51°26.574 2°45.836 149.6 12.1 154 28.6
2009-02-20 14:22:39 51°26.397 2°45.989 152.5 12.4 151 26
2009-02-20 14:23:39 51°26.218 2°46.14 148.6 12.1 152 26.8
2009-02-20 14:24:39 51°26.038 2°46.281 153.7 11.7 159 25.3
2009-02-20 14:25:39 51°25.848 2°46.387 160.5 12 166 24.5
2009-02-20 14:26:39 51°25.65 2°46.436 172 11.9 175 23.6
2009-02-20 14:27:39 51°25.451 2°46.47 172.8 12 173 24.7
2009-02-20 14:28:39 51°25.255 2°46.533 164.3 11.9 170 25
2009-02-20 14:29:39 51°25.065 2°46.629 157.6 12.1 160 24.8
2009-02-20 14:30:39 51°24.885 2°46.768 154.3 12.4 155 25.2
2009-02-20 14:31:39 51°24.705 2°46.906 156 12 151 28.7
2009-02-20 14:32:39 51°24.524 2°47.038 155.4 11.8 154 30.1
2009-02-20 14:33:39 51°24.341 2°47.172 153.2 12 158 29.2
2009-02-20 14:34:39 51°24.156 2°47.303 155.6 12.3 154 24.9
2009-02-20 14:35:39 51°23.977 2°47.454 149 12 148 25.5
2009-02-20 14:36:39 51°23.802 2°47.603 150 11.9 153 23.8
2009-02-20 14:37:39 51°23.628 2°47.749 151.4 11.7 150 19.4
2009-02-20 14:38:39 51°23.455 2°47.898 150.3 12 149 19
2009-02-20 14:39:39 51°23.283 2°48.045 149.8 11.7 154 19.8
2009-02-20 14:40:39 51°23.112 2°48.196 147.9 11.6 154 18.9
2009-02-20 14:41:39 51°22.936 2°48.344 149.4 11.9 156 19.3
2009-02-20 14:42:39 51°22.76 2°48.488 150.4 12.2 155 15.8
2009-02-20 14:43:39 51°22.581 2°48.631 149 12.3 158 17
2009-02-20 14:44:39 51°22.404 2°48.774 148.9 11.6 160 22.9
2009-02-20 14:45:39 51°22.233 2°48.915 150.8 11.8 152 23.1
2009-02-20 14:46:39 51°22.055 2°49.037 153.3 11.7 164 23.2
2009-02-20 14:47:39 51°21.871 2°49.149 158.2 12 154 23
2009-02-20 14:48:39 51°21.69 2°49.265 154.7 11.9 157 22.6
2009-02-20 14:49:39 51°21.504 2°49.381 154.7 12.1 157 21.7
2009-02-20 14:50:39 51°21.319 2°49.499 154.9 12.1 155 22
2009-02-20 14:51:39 51°21.135 2°49.623 155.6 12.3 155 22.4
2009-02-20 14:52:39 51°20.954 2°49.745 153.2 11.7 155 23.1
2009-02-20 14:53:39 51°20.774 2°49.875 152.2 12.1 157 22.9
2009-02-20 14:54:39 51°20.592 2°50.004 151.4 11.6 161 21.8
2009-02-20 14:55:39 51°20.411 2°50.131 153.7 12 158 19.4
2009-02-20 14:56:39 51°20.228 2°50.25 154.3 11.9 155 16.6
2009-02-20 14:57:39 51°20.044 2°50.375 153.8 12 158 15.4
2009-02-20 14:58:39 51°19.86 2°50.504 153.2 12 159 13.2
2009-02-20 14:59:39 51°19.682 2°50.638 151.8 11.5 154 11.5
2009-02-20 15:00:39 51°19.501 2°50.763 153.4 12.3 155 12.2
2009-02-20 15:01:39 51°19.318 2°50.889 151.6 11.8 158 14
2009-02-20 15:02:39 51°19.133 2°51.014 153.4 12.1 156 14.6
2009-02-20 15:03:39 51°18.949 2°51.143 153.2 12.2 155 14.4
2009-02-20 15:04:39 51°18.765 2°51.265 154.7 12.2 157 14
2009-02-20 15:05:39 51°18.578 2°51.388 152.5 12.3 159 13.4
2009-02-20 15:06:39 51°18.393 2°51.512 153.3 11.9 162 12.2
2009-02-20 15:07:39 51°18.201 2°51.613 157.8 11.8 162 11.2
2009-02-20 15:08:39 51°18.012 2°51.713 156.7 11.7 162 10.2
2009-02-20 15:09:39 51°17.823 2°51.811 155.4 11.7 161 9.7
2009-02-20 15:10:39 51°17.636 2°51.925 151.2 11.7 158 9.8
2009-02-20 15:11:39 51°17.453 2°52.058 151.1 12 155 10
2009-02-20 15:12:39 51°17.27 2°52.188 152.2 12.1 156 10.1
2009-02-20 15:13:39 51°17.084 2°52.316 153.5 12.7 157 9.5
2009-02-20 15:14:39 51°16.899 2°52.439 152.1 11.9 155 9.1
2009-02-20 15:15:39 51°16.72 2°52.578 151.8 12.1 156 9.4
2009-02-20 15:16:39 51°16.533 2°52.699 155.4 12.3 157 11.1
2009-02-20 15:17:39 51°16.343 2°52.815 154.3 12.6 158 11.4
2009-02-20 15:18:39 51°16.153 2°52.927 156.3 12.4 160 11.4
2009-02-20 15:19:39 51°15.963 2°53.044 153.5 12.2 157 11.2
2009-02-20 15:20:39 51°15.777 2°53.172 151.8 12 155 10.9
2009-02-20 15:21:39 51°15.592 2°53.304 151.8 12.8 155 10.4
2009-02-20 15:22:39 51°15.406 2°53.432 151.8 12.7 156 9.9
2009-02-20 15:23:39 51°15.227 2°53.574 145.2 12.4 148 9.3
2009-02-20 15:24:39 51°15.047 2°53.72 150.7 12.1 154 9.2
2009-02-20 15:25:39 51°14.893 2°53.915 126.9 11.5 133 9.3
2009-02-20 15:26:39 51°14.763 2°54.147 126.7 11.6 125 9.3
2009-02-20 15:27:39 51°14.652 2°54.403 124.3 11.8 126 9.7
2009-02-20 15:28:39 51°14.538 2°54.653 120.3 11.5 121 9.9
2009-02-20 15:29:39 51°14.439 2°54.914 115.5 11.4 123 10
2009-02-20 15:30:39 51°14.327 2°55.165 130.7 11 132 9.5
2009-02-20 15:31:39 51°14.221 2°55.32 136.4 8.1 138 9.5
2009-02-20 15:32:39 51°14.112 2°55.438 153.3 7.9 154 9.4
2009-02-20 15:33:39 51°13.989 2°55.522 157.6 8.1 158 9.3
2009-02-20 15:34:39 51°13.864 2°55.605 158.3 8 158 -999
2009-02-20 15:35:39 51°13.751 2°55.695 147.8 7.2 145 9.7
2009-02-20 15:36:40 51°13.693 2°55.818 120.1 4.9 119 -999
2009-02-20 15:37:40 51°13.665 2°55.925 103.3 3.6 104 -999